F E Warren AFB, Wyoming
Current Conditions -  °F | °C
As of 5:53 PM on Saturday 20 Dec 2014 (Local Time) from KCYS Reporting Station
Few Clouds Few Clouds  
Wind Chill: 31°   Ceiling: Unl
Heat Index: 37°   Visibility: 10mi
Dew Point: 19°   Wind: 8mph
Humidity: 48%   Direction: 280°W
Pressure: 29.94"   Gusts: NA
Location:  41.13°N, 104.82°W
Report Text: KCYS 210053Z 28007KT 10SM FEW070 03/M07 A2994 RMK AO2 SLP139 T00281072
Loading
Personal Weather Stations






























Interactive Weather Map New forecast layout! Learn more

10-Day Weather Forecast

Advertisements
Track Severe Weather on mobile